sensor_id;sensor_type;location;lat;lon;timestamp;pressure;altitude;pressure_sealevel;temperature;humidity
45275;BME280;31019;43.780;25.948;2023-04-22T00:00:39;100815.63;;;10.42;100.00
45275;BME280;31019;43.780;25.948;2023-04-22T00:03:11;100823.59;;;10.55;100.00
45275;BME280;31019;43.780;25.948;2023-04-22T00:06:11;100824.41;;;10.82;100.00
45275;BME280;31019;43.780;25.948;2023-04-22T00:09:03;100829.94;;;10.67;100.00
45275;BME280;31019;43.780;25.948;2023-04-22T00:11:39;100814.78;;;10.35;100.00
45275;BME280;31019;43.780;25.948;2023-04-22T00:15:44;100815.78;;;10.27;100.00
45275;BME280;31019;43.780;25.948;2023-04-22T00:17:42;100815.22;;;10.38;100.00
45275;BME280;31019;43.780;25.948;2023-04-22T00:20:36;100815.22;;;10.38;100.00
45275;BME280;31019;43.780;25.948;2023-04-22T00:23:41;100833.41;;;10.48;100.00
45275;BME280;31019;43.780;25.948;2023-04-22T00:30:12;100823.47;;;10.08;100.00
45275;BME280;31019;43.780;25.948;2023-04-22T00:33:17;100831.28;;;10.23;100.00
45275;BME280;31019;43.780;25.948;2023-04-22T00:36:01;100830.25;;;10.24;100.00
45275;BME280;31019;43.780;25.948;2023-04-22T00:42:10;100841.25;;;10.15;100.00
45275;BME280;31019;43.780;25.948;2023-04-22T00:45:14;100846.97;;;10.18;100.00
45275;BME280;31019;43.780;25.948;2023-04-22T00:48:21;100842.03;;;10.02;100.00
45275;BME280;31019;43.780;25.948;2023-04-22T00:51:11;100845.13;;;10.12;100.00
45275;BME280;31019;43.780;25.948;2023-04-22T00:56:42;100835.72;;;10.03;100.00
45275;BME280;31019;43.780;25.948;2023-04-22T00:57:34;100854.72;;;10.13;100.00
45275;BME280;31019;43.780;25.948;2023-04-22T01:00:45;100847.16;;;10.10;100.00
45275;BME280;31019;43.780;25.948;2023-04-22T01:07:09;100846.72;;;10.06;100.00
45275;BME280;31019;43.780;25.948;2023-04-22T01:10:11;100860.72;;;9.80;100.00
45275;BME280;31019;43.780;25.948;2023-04-22T01:19:42;100839.94;;;9.91;100.00
45275;BME280;31019;43.780;25.948;2023-04-22T01:22:27;100838.09;;;9.91;100.00
45275;BME280;31019;43.780;25.948;2023-04-22T01:25:20;100854.59;;;9.80;100.00
45275;BME280;31019;43.780;25.948;2023-04-22T01:31:12;100847.03;;;9.77;100.00
45275;BME280;31019;43.780;25.948;2023-04-22T01:33:57;100846.03;;;9.78;100.00
45275;BME280;31019;43.780;25.948;2023-04-22T01:36:38;100857.47;;;9.85;100.00
45275;BME280;31019;43.780;25.948;2023-04-22T01:39:30;100866.66;;;9.89;100.00
45275;BME280;31019;43.780;25.948;2023-04-22T01:42:30;100848.09;;;9.89;100.00
45275;BME280;31019;43.780;25.948;2023-04-22T01:45:38;100837.47;;;9.82;100.00
45275;BME280;31019;43.780;25.948;2023-04-22T01:48:21;100832.38;;;9.88;100.00
45275;BME280;31019;43.780;25.948;2023-04-22T01:51:07;100845.69;;;9.53;100.00
45275;BME280;31019;43.780;25.948;2023-04-22T01:56:41;100832.78;;;9.43;100.00
45275;BME280;31019;43.780;25.948;2023-04-22T01:59:49;100825.88;;;9.49;100.00
45275;BME280;31019;43.780;25.948;2023-04-22T02:02:36;100837.69;;;9.46;100.00
45275;BME280;31019;43.780;25.948;2023-04-22T02:05:20;100835.25;;;9.45;100.00
45275;BME280;31019;43.780;25.948;2023-04-22T02:08:14;100824.22;;;9.41;100.00
45275;BME280;31019;43.780;25.948;2023-04-22T02:11:03;100822.03;;;9.51;100.00
45275;BME280;31019;43.780;25.948;2023-04-22T02:13:45;100815.88;;;9.44;100.00
45275;BME280;31019;43.780;25.948;2023-04-22T02:20:15;100812.75;;;9.34;100.00
45275;BME280;31019;43.780;25.948;2023-04-22T02:26:10;100823.09;;;9.63;100.00
45275;BME280;31019;43.780;25.948;2023-04-22T02:29:11;100815.53;;;9.60;100.00
45275;BME280;31019;43.780;25.948;2023-04-22T02:32:20;100820.41;;;9.57;100.00
45275;BME280;31019;43.780;25.948;2023-04-22T02:35:38;100817.13;;;9.55;100.00
45275;BME280;31019;43.780;25.948;2023-04-22T02:39:27;100824.56;;;9.73;100.00
45275;BME280;31019;43.780;25.948;2023-04-22T02:42:04;100819.84;;;9.68;100.00
45275;BME280;31019;43.780;25.948;2023-04-22T02:44:55;100828.06;;;9.80;100.00
45275;BME280;31019;43.780;25.948;2023-04-22T02:47:34;100826.78;;;9.62;100.00
45275;BME280;31019;43.780;25.948;2023-04-22T02:50:23;100823.28;;;9.62;100.00
45275;BME280;31019;43.780;25.948;2023-04-22T02:53:24;100819.75;;;9.48;100.00
45275;BME280;31019;43.780;25.948;2023-04-22T02:56:06;100830.47;;;9.33;100.00
45275;BME280;31019;43.780;25.948;2023-04-22T02:58:59;100830.72;;;9.38;100.00
45275;BME280;31019;43.780;25.948;2023-04-22T03:01:42;100825.19;;;9.33;100.00
45275;BME280;31019;43.780;25.948;2023-04-22T03:04:30;100816.78;;;9.23;100.00
45275;BME280;31019;43.780;25.948;2023-04-22T03:07:22;100820.44;;;8.94;100.00
45275;BME280;31019;43.780;25.948;2023-04-22T03:10:06;100814.94;;;8.95;100.00
45275;BME280;31019;43.780;25.948;2023-04-22T03:12:37;100814.28;;;8.87;100.00
45275;BME280;31019;43.780;25.948;2023-04-22T03:15:32;100808.69;;;9.03;100.00
45275;BME280;31019;43.780;25.948;2023-04-22T03:18:38;100823.13;;;9.01;100.00
45275;BME280;31019;43.780;25.948;2023-04-22T03:24:22;100824.00;;;8.58;100.00
45275;BME280;31019;43.780;25.948;2023-04-22T03:27:16;100831.50;;;8.55;100.00
45275;BME280;31019;43.780;25.948;2023-04-22T03:33:28;100820.84;;;8.69;100.00
45275;BME280;31019;43.780;25.948;2023-04-22T03:36:31;100835.72;;;8.70;100.00
45275;BME280;31019;43.780;25.948;2023-04-22T03:39:29;100834.97;;;8.77;100.00
45275;BME280;31019;43.780;25.948;2023-04-22T03:42:09;100825.63;;;8.59;100.00
45275;BME280;31019;43.780;25.948;2023-04-22T03:48:30;100833.66;;;8.66;100.00
45275;BME280;31019;43.780;25.948;2023-04-22T03:52:10;100843.06;;;8.68;100.00
45275;BME280;31019;43.780;25.948;2023-04-22T03:54:53;100854.22;;;8.92;100.00
45275;BME280;31019;43.780;25.948;2023-04-22T03:57:42;100851.19;;;8.95;100.00
45275;BME280;31019;43.780;25.948;2023-04-22T04:01:03;100862.91;;;9.07;100.00
45275;BME280;31019;43.780;25.948;2023-04-22T04:04:15;100867.34;;;9.00;100.00
45275;BME280;31019;43.780;25.948;2023-04-22T04:07:09;100872.75;;;9.13;100.00
45275;BME280;31019;43.780;25.948;2023-04-22T04:09:56;100880.22;;;9.31;100.00
45275;BME280;31019;43.780;25.948;2023-04-22T04:12:52;100879.78;;;9.28;100.00
45275;BME280;31019;43.780;25.948;2023-04-22T04:15:57;100878.09;;;9.48;100.00
45275;BME280;31019;43.780;25.948;2023-04-22T04:18:57;100884.66;;;9.59;100.00
45275;BME280;31019;43.780;25.948;2023-04-22T04:25:12;100900.84;;;9.71;100.00
45275;BME280;31019;43.780;25.948;2023-04-22T04:28:10;100904.22;;;9.51;100.00
45275;BME280;31019;43.780;25.948;2023-04-22T04:31:10;100899.69;;;9.45;100.00
45275;BME280;31019;43.780;25.948;2023-04-22T04:41:03;100928.03;;;10.14;100.00
45275;BME280;31019;43.780;25.948;2023-04-22T04:43:46;100927.97;;;10.07;100.00
45275;BME280;31019;43.780;25.948;2023-04-22T04:53:09;100949.88;;;10.64;100.00
45275;BME280;31019;43.780;25.948;2023-04-22T05:03:03;100946.69;;;11.02;100.00
45275;BME280;31019;43.780;25.948;2023-04-22T05:06:11;100943.59;;;11.18;100.00
45275;BME280;31019;43.780;25.948;2023-04-22T05:09:23;100957.75;;;11.32;100.00
45275;BME280;31019;43.780;25.948;2023-04-22T05:15:09;100951.78;;;11.57;100.00
45275;BME280;31019;43.780;25.948;2023-04-22T05:24:21;100949.69;;;11.85;100.00
45275;BME280;31019;43.780;25.948;2023-04-22T05:27:22;100958.06;;;11.82;100.00
45275;BME280;31019;43.780;25.948;2023-04-22T05:30:31;100949.91;;;11.70;100.00
45275;BME280;31019;43.780;25.948;2023-04-22T05:33:20;100964.44;;;11.75;100.00
45275;BME280;31019;43.780;25.948;2023-04-22T05:36:12;100964.63;;;11.80;100.00
45275;BME280;31019;43.780;25.948;2023-04-22T05:39:28;100957.69;;;11.85;100.00
45275;BME280;31019;43.780;25.948;2023-04-22T05:42:08;100975.50;;;11.91;100.00
45275;BME280;31019;43.780;25.948;2023-04-22T05:44:35;100977.47;;;12.16;100.00
45275;BME280;31019;43.780;25.948;2023-04-22T05:47:02;100965.59;;;12.12;100.00
45275;BME280;31019;43.780;25.948;2023-04-22T05:49:29;100979.16;;;12.62;100.00
45275;BME280;31019;43.780;25.948;2023-04-22T05:51:56;100973.28;;;12.47;100.00
45275;BME280;31019;43.780;25.948;2023-04-22T05:54:24;100976.38;;;12.44;100.00
45275;BME280;31019;43.780;25.948;2023-04-22T05:56:51;100974.44;;;12.57;100.00
45275;BME280;31019;43.780;25.948;2023-04-22T05:59:18;100978.38;;;12.87;100.00
45275;BME280;31019;43.780;25.948;2023-04-22T06:01:54;100981.09;;;13.12;100.00
45275;BME280;31019;43.780;25.948;2023-04-22T06:04:21;100983.13;;;13.16;100.00
45275;BME280;31019;43.780;25.948;2023-04-22T06:06:48;100980.88;;;13.13;100.00
45275;BME280;31019;43.780;25.948;2023-04-22T06:09:18;100985.38;;;13.13;100.00
45275;BME280;31019;43.780;25.948;2023-04-22T06:11:46;100994.31;;;13.32;100.00
45275;BME280;31019;43.780;25.948;2023-04-22T06:14:13;100997.84;;;13.50;100.00
45275;BME280;31019;43.780;25.948;2023-04-22T06:16:40;100996.56;;;13.35;100.00
45275;BME280;31019;43.780;25.948;2023-04-22T06:19:07;101001.34;;;13.51;100.00
45275;BME280;31019;43.780;25.948;2023-04-22T06:21:34;101004.88;;;13.45;100.00
45275;BME280;31019;43.780;25.948;2023-04-22T06:24:03;101012.00;;;13.51;100.00
45275;BME280;31019;43.780;25.948;2023-04-22T06:26:30;101009.66;;;13.36;100.00
45275;BME280;31019;43.780;25.948;2023-04-22T06:28:59;101016.94;;;13.72;100.00
45275;BME280;31019;43.780;25.948;2023-04-22T06:31:27;101024.03;;;13.60;100.00
45275;BME280;31019;43.780;25.948;2023-04-22T06:33:54;101020.44;;;13.73;100.00
45275;BME280;31019;43.780;25.948;2023-04-22T06:36:20;101032.81;;;13.92;100.00
45275;BME280;31019;43.780;25.948;2023-04-22T06:38:47;101032.34;;;13.95;100.00
45275;BME280;31019;43.780;25.948;2023-04-22T06:41:15;101032.94;;;13.97;100.00
45275;BME280;31019;43.780;25.948;2023-04-22T06:43:48;101044.47;;;13.98;100.00
45275;BME280;31019;43.780;25.948;2023-04-22T06:46:16;101036.81;;;14.02;100.00
45275;BME280;31019;43.780;25.948;2023-04-22T06:48:43;101039.56;;;14.50;100.00
45275;BME280;31019;43.780;25.948;2023-04-22T06:51:10;101035.06;;;14.69;100.00
45275;BME280;31019;43.780;25.948;2023-04-22T06:53:37;101032.81;;;14.66;100.00
45275;BME280;31019;43.780;25.948;2023-04-22T06:56:04;101041.91;;;14.65;100.00
45275;BME280;31019;43.780;25.948;2023-04-22T06:58:32;101023.13;;;14.53;100.00
45275;BME280;31019;43.780;25.948;2023-04-22T07:00:58;101035.03;;;14.51;100.00
45275;BME280;31019;43.780;25.948;2023-04-22T07:03:27;101032.81;;;14.48;100.00
45275;BME280;31019;43.780;25.948;2023-04-22T07:05:53;101033.97;;;14.58;100.00
45275;BME280;31019;43.780;25.948;2023-04-22T07:08:20;101030.22;;;14.41;100.00
45275;BME280;31019;43.780;25.948;2023-04-22T07:10:47;101039.59;;;14.69;100.00
45275;BME280;31019;43.780;25.948;2023-04-22T07:13:14;101047.63;;;14.99;100.00
45275;BME280;31019;43.780;25.948;2023-04-22T07:15:41;101048.78;;;14.73;100.00
45275;BME280;31019;43.780;25.948;2023-04-22T07:18:08;101045.84;;;14.62;100.00
45275;BME280;31019;43.780;25.948;2023-04-22T07:20:36;101050.88;;;14.71;100.00
45275;BME280;31019;43.780;25.948;2023-04-22T07:23:03;101055.94;;;14.91;100.00
45275;BME280;31019;43.780;25.948;2023-04-22T07:25:30;101054.19;;;14.48;100.00
45275;BME280;31019;43.780;25.948;2023-04-22T07:27:57;101060.69;;;14.58;100.00
45275;BME280;31019;43.780;25.948;2023-04-22T07:30:24;101056.28;;;14.64;100.00
45275;BME280;31019;43.780;25.948;2023-04-22T07:36:29;101042.25;;;14.69;100.00
45275;BME280;31019;43.780;25.948;2023-04-22T07:42:34;101054.09;;;15.21;100.00
45275;BME280;31019;43.780;25.948;2023-04-22T07:45:20;101059.75;;;15.43;100.00
45275;BME280;31019;43.780;25.948;2023-04-22T07:48:09;101047.78;;;15.16;100.00
45275;BME280;31019;43.780;25.948;2023-04-22T07:57:38;101056.44;;;15.29;100.00
45275;BME280;31019;43.780;25.948;2023-04-22T08:00:33;101060.84;;;15.24;100.00
45275;BME280;31019;43.780;25.948;2023-04-22T08:03:36;101059.38;;;15.40;100.00
45275;BME280;31019;43.780;25.948;2023-04-22T08:09:32;101055.25;;;15.67;100.00
45275;BME280;31019;43.780;25.948;2023-04-22T08:15:09;101079.22;;;15.62;100.00
45275;BME280;31019;43.780;25.948;2023-04-22T08:17:36;101070.16;;;15.75;100.00
45275;BME280;31019;43.780;25.948;2023-04-22T08:20:06;101079.03;;;15.99;100.00
45275;BME280;31019;43.780;25.948;2023-04-22T08:22:33;101075.91;;;16.78;100.00
45275;BME280;31019;43.780;25.948;2023-04-22T08:25:00;101070.06;;;16.69;100.00
45275;BME280;31019;43.780;25.948;2023-04-22T08:27:32;101072.25;;;17.12;100.00
45275;BME280;31019;43.780;25.948;2023-04-22T08:29:58;101062.94;;;17.15;100.00
45275;BME280;31019;43.780;25.948;2023-04-22T08:32:27;101081.50;;;17.33;100.00
45275;BME280;31019;43.780;25.948;2023-04-22T08:35:20;101068.88;;;17.17;100.00
45275;BME280;31019;43.780;25.948;2023-04-22T08:38:07;101067.72;;;16.72;100.00
45275;BME280;31019;43.780;25.948;2023-04-22T08:41:20;101080.00;;;16.80;100.00
45275;BME280;31019;43.780;25.948;2023-04-22T08:43:49;101081.88;;;16.68;100.00
45275;BME280;31019;43.780;25.948;2023-04-22T08:46:16;101088.03;;;17.37;100.00
45275;BME280;31019;43.780;25.948;2023-04-22T08:48:47;101087.72;;;16.77;100.00
45275;BME280;31019;43.780;25.948;2023-04-22T08:51:15;101091.41;;;16.64;100.00
45275;BME280;31019;43.780;25.948;2023-04-22T08:53:42;101107.91;;;16.56;100.00
45275;BME280;31019;43.780;25.948;2023-04-22T08:56:25;101105.72;;;16.29;100.00
45275;BME280;31019;43.780;25.948;2023-04-22T08:59:07;101099.53;;;16.17;100.00
45275;BME280;31019;43.780;25.948;2023-04-22T09:05:48;101097.66;;;15.82;100.00
45275;BME280;31019;43.780;25.948;2023-04-22T09:08:39;101096.00;;;15.69;100.00
45275;BME280;31019;43.780;25.948;2023-04-22T09:11:48;101088.50;;;15.60;100.00
45275;BME280;31019;43.780;25.948;2023-04-22T09:14:38;101089.50;;;15.77;100.00
45275;BME280;31019;43.780;25.948;2023-04-22T09:17:53;101087.84;;;15.76;100.00
45275;BME280;31019;43.780;25.948;2023-04-22T09:24:14;101071.94;;;16.05;100.00
45275;BME280;31019;43.780;25.948;2023-04-22T09:27:52;101069.66;;;16.48;100.00
45275;BME280;31019;43.780;25.948;2023-04-22T09:30:53;101075.91;;;17.35;100.00
45275;BME280;31019;43.780;25.948;2023-04-22T09:36:34;101065.53;;;17.89;100.00
45275;BME280;31019;43.780;25.948;2023-04-22T09:49:31;101061.09;;;17.66;100.00
45275;BME280;31019;43.780;25.948;2023-04-22T09:52:33;101073.97;;;17.47;100.00
45275;BME280;31019;43.780;25.948;2023-04-22T09:55:40;101067.56;;;16.91;100.00
45275;BME280;31019;43.780;25.948;2023-04-22T10:01:54;101046.53;;;17.28;100.00
45275;BME280;31019;43.780;25.948;2023-04-22T10:14:45;101050.59;;;18.81;100.00
45275;BME280;31019;43.780;25.948;2023-04-22T10:19:05;101030.66;;;19.36;100.00
45275;BME280;31019;43.780;25.948;2023-04-22T10:20:58;101031.50;;;19.69;94.84
45275;BME280;31019;43.780;25.948;2023-04-22T10:27:05;101019.38;;;20.82;72.99
45275;BME280;31019;43.780;25.948;2023-04-22T10:30:17;101031.31;;;19.16;82.82
45275;BME280;31019;43.780;25.948;2023-04-22T10:36:29;101018.19;;;19.95;85.94
45275;BME280;31019;43.780;25.948;2023-04-22T10:39:28;101017.41;;;19.25;82.80
45275;BME280;31019;43.780;25.948;2023-04-22T10:42:21;101016.75;;;19.12;86.75
45275;BME280;31019;43.780;25.948;2023-04-22T10:45:32;101013.84;;;19.19;87.86
45275;BME280;31019;43.780;25.948;2023-04-22T10:48:15;101012.91;;;19.73;74.65
45275;BME280;31019;43.780;25.948;2023-04-22T10:51:45;101004.84;;;19.73;72.70
45275;BME280;31019;43.780;25.948;2023-04-22T10:55:18;101007.16;;;20.01;68.26
45275;BME280;31019;43.780;25.948;2023-04-22T10:58:37;101015.28;;;20.06;64.22
45275;BME280;31019;43.780;25.948;2023-04-22T11:04:54;101011.00;;;18.76;100.00
45275;BME280;31019;43.780;25.948;2023-04-22T11:08:01;101007.31;;;18.83;92.49
45275;BME280;31019;43.780;25.948;2023-04-22T11:11:06;101011.44;;;19.22;88.45
45275;BME280;31019;43.780;25.948;2023-04-22T11:14:11;101015.84;;;19.66;56.01
45275;BME280;31019;43.780;25.948;2023-04-22T11:16:54;101004.19;;;19.60;56.60
45275;BME280;31019;43.780;25.948;2023-04-22T11:30:02;101008.34;;;21.55;78.40
45275;BME280;31019;43.780;25.948;2023-04-22T11:33:08;101010.50;;;21.53;70.79
45275;BME280;31019;43.780;25.948;2023-04-22T11:36:45;101006.19;;;21.62;59.76
45275;BME280;31019;43.780;25.948;2023-04-22T11:39:33;101007.25;;;21.51;83.97
45275;BME280;31019;43.780;25.948;2023-04-22T11:42:22;100998.38;;;20.26;71.08
45275;BME280;31019;43.780;25.948;2023-04-22T11:48:40;101001.25;;;20.72;70.32
45275;BME280;31019;43.780;25.948;2023-04-22T11:51:30;100976.50;;;19.33;100.00
45275;BME280;31019;43.780;25.948;2023-04-22T11:57:59;100990.28;;;20.21;100.00
45275;BME280;31019;43.780;25.948;2023-04-22T12:00:59;100994.03;;;20.20;100.00
45275;BME280;31019;43.780;25.948;2023-04-22T12:03:48;100997.91;;;19.87;89.06
45275;BME280;31019;43.780;25.948;2023-04-22T12:10:15;100994.84;;;19.36;95.81
45275;BME280;31019;43.780;25.948;2023-04-22T12:13:02;100992.34;;;18.97;82.53
45275;BME280;31019;43.780;25.948;2023-04-22T12:16:02;100983.38;;;19.13;75.79
45275;BME280;31019;43.780;25.948;2023-04-22T12:28:23;100989.63;;;19.99;91.20
45275;BME280;31019;43.780;25.948;2023-04-22T12:31:12;100974.56;;;21.53;84.12
45275;BME280;31019;43.780;25.948;2023-04-22T12:37:38;100972.00;;;20.44;86.58
45275;BME280;31019;43.780;25.948;2023-04-22T12:40:31;100972.22;;;20.27;100.00
45275;BME280;31019;43.780;25.948;2023-04-22T12:43:13;100968.03;;;19.14;95.23
45275;BME280;31019;43.780;25.948;2023-04-22T12:45:59;100970.44;;;19.90;74.27
45275;BME280;31019;43.780;25.948;2023-04-22T12:52:24;100974.84;;;20.06;70.25
45275;BME280;31019;43.780;25.948;2023-04-22T12:55:26;100978.28;;;19.92;84.18
45275;BME280;31019;43.780;25.948;2023-04-22T12:58:14;100970.94;;;20.40;73.14
45275;BME280;31019;43.780;25.948;2023-04-22T13:04:03;100962.06;;;19.12;100.00
45275;BME280;31019;43.780;25.948;2023-04-22T13:06:58;100950.53;;;20.85;63.33
45275;BME280;31019;43.780;25.948;2023-04-22T13:09:40;100956.72;;;20.70;57.85
45275;BME280;31019;43.780;25.948;2023-04-22T13:16:07;100962.91;;;20.65;83.94
45275;BME280;31019;43.780;25.948;2023-04-22T13:22:30;100967.84;;;20.10;95.02
45275;BME280;31019;43.780;25.948;2023-04-22T13:25:40;100953.50;;;20.98;66.78
45275;BME280;31019;43.780;25.948;2023-04-22T13:28:29;100963.50;;;21.18;61.81
45275;BME280;31019;43.780;25.948;2023-04-22T13:31:27;100947.78;;;21.77;76.85
45275;BME280;31019;43.780;25.948;2023-04-22T13:35:38;100971.31;;;21.15;62.04
45275;BME280;31019;43.780;25.948;2023-04-22T13:37:46;100960.25;;;20.02;70.33
45275;BME280;31019;43.780;25.948;2023-04-22T13:40:31;100962.97;;;20.07;66.49
45275;BME280;31019;43.780;25.948;2023-04-22T13:43:08;100970.41;;;19.10;100.00
45275;BME280;31019;43.780;25.948;2023-04-22T13:46:11;100970.53;;;19.63;73.09
45275;BME280;31019;43.780;25.948;2023-04-22T13:52:28;100969.25;;;19.01;91.29
45275;BME280;31019;43.780;25.948;2023-04-22T14:08:21;100972.34;;;19.89;67.67
45275;BME280;31019;43.780;25.948;2023-04-22T14:11:22;100971.84;;;19.60;81.89
45275;BME280;31019;43.780;25.948;2023-04-22T14:14:46;100975.00;;;19.47;90.43
45275;BME280;31019;43.780;25.948;2023-04-22T14:21:37;100981.16;;;18.78;87.76
45275;BME280;31019;43.780;25.948;2023-04-22T14:24:28;100980.69;;;18.37;95.23
45275;BME280;31019;43.780;25.948;2023-04-22T14:33:32;100995.84;;;17.32;100.00
45275;BME280;31019;43.780;25.948;2023-04-22T14:39:19;100997.88;;;18.58;97.57
45275;BME280;31019;43.780;25.948;2023-04-22T14:42:04;101000.19;;;18.05;95.18
45275;BME280;31019;43.780;25.948;2023-04-22T14:44:54;100993.22;;;18.75;89.89
45275;BME280;31019;43.780;25.948;2023-04-22T14:48:02;100998.38;;;18.77;84.02
45275;BME280;31019;43.780;25.948;2023-04-22T14:50:29;101017.47;;;18.31;81.03
45275;BME280;31019;43.780;25.948;2023-04-22T14:52:57;101003.06;;;17.99;94.13
45275;BME280;31019;43.780;25.948;2023-04-22T14:55:24;101005.44;;;17.95;77.74
45275;BME280;31019;43.780;25.948;2023-04-22T14:57:53;101011.41;;;17.80;74.91
45275;BME280;31019;43.780;25.948;2023-04-22T15:00:21;101007.41;;;17.49;80.85
45275;BME280;31019;43.780;25.948;2023-04-22T15:02:48;101005.84;;;17.53;85.55
45275;BME280;31019;43.780;25.948;2023-04-22T15:05:16;101011.50;;;18.07;83.31
45275;BME280;31019;43.780;25.948;2023-04-22T15:07:43;101005.25;;;18.02;100.00
45275;BME280;31019;43.780;25.948;2023-04-22T15:10:11;101007.44;;;18.05;100.00
45275;BME280;31019;43.780;25.948;2023-04-22T15:15:55;100995.88;;;18.04;90.93
45275;BME280;31019;43.780;25.948;2023-04-22T15:18:42;100989.81;;;18.14;91.78
45275;BME280;31019;43.780;25.948;2023-04-22T15:21:23;100980.28;;;18.50;86.99
45275;BME280;31019;43.780;25.948;2023-04-22T15:24:16;100979.38;;;18.67;87.80
45275;BME280;31019;43.780;25.948;2023-04-22T15:34:59;100983.06;;;18.34;88.88
45275;BME280;31019;43.780;25.948;2023-04-22T15:37:00;100984.56;;;18.02;89.44
45275;BME280;31019;43.780;25.948;2023-04-22T15:40:18;100983.06;;;18.12;84.05
45275;BME280;31019;43.780;25.948;2023-04-22T15:43:08;100993.16;;;17.82;81.61
45275;BME280;31019;43.780;25.948;2023-04-22T15:45:35;100999.19;;;17.56;84.06
45275;BME280;31019;43.780;25.948;2023-04-22T16:11:42;101022.59;;;17.10;100.00
45275;BME280;31019;43.780;25.948;2023-04-22T16:14:08;101027.34;;;16.91;100.00
45275;BME280;31019;43.780;25.948;2023-04-22T16:16:38;101024.38;;;16.76;100.00
45275;BME280;31019;43.780;25.948;2023-04-22T16:19:05;101036.28;;;16.80;100.00
45275;BME280;31019;43.780;25.948;2023-04-22T16:21:32;101037.41;;;16.43;100.00
45275;BME280;31019;43.780;25.948;2023-04-22T16:23:59;101036.69;;;16.36;100.00
45275;BME280;31019;43.780;25.948;2023-04-22T16:26:26;101034.03;;;16.24;100.00
45275;BME280;31019;43.780;25.948;2023-04-22T16:28:54;101034.09;;;16.13;100.00
45275;BME280;31019;43.780;25.948;2023-04-22T16:31:26;101045.28;;;15.86;100.00
45275;BME280;31019;43.780;25.948;2023-04-22T16:34:03;101048.09;;;15.61;100.00
45275;BME280;31019;43.780;25.948;2023-04-22T16:36:30;101044.72;;;15.42;100.00
45275;BME280;31019;43.780;25.948;2023-04-22T16:38:57;101051.53;;;15.26;100.00
45275;BME280;31019;43.780;25.948;2023-04-22T16:41:24;101047.91;;;15.21;100.00
45275;BME280;31019;43.780;25.948;2023-04-22T16:43:50;101046.00;;;14.98;100.00
45275;BME280;31019;43.780;25.948;2023-04-22T16:46:28;101058.41;;;14.92;100.00
45275;BME280;31019;43.780;25.948;2023-04-22T16:48:54;101058.31;;;14.69;100.00
45275;BME280;31019;43.780;25.948;2023-04-22T16:51:21;101059.72;;;14.53;100.00
45275;BME280;31019;43.780;25.948;2023-04-22T16:53:48;101064.88;;;14.29;100.00
45275;BME280;31019;43.780;25.948;2023-04-22T16:56:15;101063.09;;;14.23;100.00
45275;BME280;31019;43.780;25.948;2023-04-22T16:58:42;101071.97;;;13.98;100.00
45275;BME280;31019;43.780;25.948;2023-04-22T17:01:09;101074.09;;;13.90;100.00
45275;BME280;31019;43.780;25.948;2023-04-22T17:03:37;101074.81;;;13.79;100.00
45275;BME280;31019;43.780;25.948;2023-04-22T17:06:05;101074.38;;;13.57;100.00
45275;BME280;31019;43.780;25.948;2023-04-22T17:08:32;101065.75;;;13.55;100.00
45275;BME280;31019;43.780;25.948;2023-04-22T17:10:59;101081.88;;;13.41;100.00
45275;BME280;31019;43.780;25.948;2023-04-22T17:13:26;101076.75;;;13.01;100.00
45275;BME280;31019;43.780;25.948;2023-04-22T17:15:53;101083.06;;;13.07;100.00
45275;BME280;31019;43.780;25.948;2023-04-22T17:18:20;101084.03;;;12.68;100.00
45275;BME280;31019;43.780;25.948;2023-04-22T17:20:48;101085.22;;;12.85;100.00
45275;BME280;31019;43.780;25.948;2023-04-22T17:23:16;101084.06;;;12.61;100.00
45275;BME280;31019;43.780;25.948;2023-04-22T17:25:43;101088.78;;;12.66;100.00
45275;BME280;31019;43.780;25.948;2023-04-22T17:28:12;101098.28;;;12.42;100.00
45275;BME280;31019;43.780;25.948;2023-04-22T17:30:39;101094.78;;;12.48;100.00
45275;BME280;31019;43.780;25.948;2023-04-22T17:33:08;101099.53;;;11.73;100.00
45275;BME280;31019;43.780;25.948;2023-04-22T17:35:35;101097.66;;;11.46;100.00
45275;BME280;31019;43.780;25.948;2023-04-22T17:38:03;101108.94;;;11.49;100.00
45275;BME280;31019;43.780;25.948;2023-04-22T17:40:31;101101.16;;;11.47;100.00
45275;BME280;31019;43.780;25.948;2023-04-22T17:42:57;101105.44;;;11.41;100.00
45275;BME280;31019;43.780;25.948;2023-04-22T17:45:24;101102.38;;;11.51;100.00
45275;BME280;31019;43.780;25.948;2023-04-22T17:47:51;101109.91;;;11.28;100.00
45275;BME280;31019;43.780;25.948;2023-04-22T17:50:33;101102.97;;;11.33;100.00
45275;BME280;31019;43.780;25.948;2023-04-22T17:56:22;101122.44;;;10.86;100.00
45275;BME280;31019;43.780;25.948;2023-04-22T17:58:50;101133.56;;;10.68;100.00
45275;BME280;31019;43.780;25.948;2023-04-22T18:01:20;101130.78;;;10.76;100.00
45275;BME280;31019;43.780;25.948;2023-04-22T18:03:50;101142.13;;;10.57;100.00
45275;BME280;31019;43.780;25.948;2023-04-22T18:06:16;101143.47;;;10.46;100.00
45275;BME280;31019;43.780;25.948;2023-04-22T18:08:43;101150.34;;;10.34;100.00
45275;BME280;31019;43.780;25.948;2023-04-22T18:11:10;101149.84;;;10.51;100.00
45275;BME280;31019;43.780;25.948;2023-04-22T18:16:59;101152.03;;;10.76;100.00